sensor_id;sensor_type;location;lat;lon;timestamp;temperature;humidity
16301;DHT22;8258;51.020;4.248;2022-12-29T00:01:24;10.70;99.90
16301;DHT22;8258;51.020;4.248;2022-12-29T00:04:00;10.70;99.90
16301;DHT22;8258;51.020;4.248;2022-12-29T00:06:27;10.80;99.90
16301;DHT22;8258;51.020;4.248;2022-12-29T00:08:54;10.80;99.90
16301;DHT22;8258;51.020;4.248;2022-12-29T00:11:23;10.90;99.90
16301;DHT22;8258;51.020;4.248;2022-12-29T00:13:50;10.90;99.90
16301;DHT22;8258;51.020;4.248;2022-12-29T00:16:36;11.00;99.90
16301;DHT22;8258;51.020;4.248;2022-12-29T00:19:04;11.00;99.90
16301;DHT22;8258;51.020;4.248;2022-12-29T00:21:32;11.00;99.90
16301;DHT22;8258;51.020;4.248;2022-12-29T00:24:18;11.10;99.90
16301;DHT22;8258;51.020;4.248;2022-12-29T00:27:12;11.00;99.90
16301;DHT22;8258;51.020;4.248;2022-12-29T00:29:57;11.10;99.90
16301;DHT22;8258;51.020;4.248;2022-12-29T00:32:41;11.20;99.90
16301;DHT22;8258;51.020;4.248;2022-12-29T00:35:29;11.20;99.90
16301;DHT22;8258;51.020;4.248;2022-12-29T00:38:00;11.20;99.90
16301;DHT22;8258;51.020;4.248;2022-12-29T00:40:46;11.30;99.90
16301;DHT22;8258;51.020;4.248;2022-12-29T00:43:30;11.30;99.90
16301;DHT22;8258;51.020;4.248;2022-12-29T00:46:14;11.30;99.90
16301;DHT22;8258;51.020;4.248;2022-12-29T00:48:41;11.40;99.90
16301;DHT22;8258;51.020;4.248;2022-12-29T00:51:27;11.30;99.90
16301;DHT22;8258;51.020;4.248;2022-12-29T00:53:54;11.40;99.90
16301;DHT22;8258;51.020;4.248;2022-12-29T00:56:21;11.40;99.90
16301;DHT22;8258;51.020;4.248;2022-12-29T00:58:48;11.50;99.90
16301;DHT22;8258;51.020;4.248;2022-12-29T01:01:15;11.50;99.90
16301;DHT22;8258;51.020;4.248;2022-12-29T01:03:42;11.50;99.90
16301;DHT22;8258;51.020;4.248;2022-12-29T01:06:11;11.50;99.90
16301;DHT22;8258;51.020;4.248;2022-12-29T01:08:40;11.50;99.90
16301;DHT22;8258;51.020;4.248;2022-12-29T01:11:09;11.50;99.90
16301;DHT22;8258;51.020;4.248;2022-12-29T01:13:36;11.50;99.90
16301;DHT22;8258;51.020;4.248;2022-12-29T01:16:04;11.60;99.90
16301;DHT22;8258;51.020;4.248;2022-12-29T01:18:31;11.60;99.90
16301;DHT22;8258;51.020;4.248;2022-12-29T01:20:59;11.50;99.90
16301;DHT22;8258;51.020;4.248;2022-12-29T01:23:26;11.50;99.90
16301;DHT22;8258;51.020;4.248;2022-12-29T01:25:55;11.40;99.90
16301;DHT22;8258;51.020;4.248;2022-12-29T01:28:22;11.20;99.90
16301;DHT22;8258;51.020;4.248;2022-12-29T01:30:50;11.00;99.90
16301;DHT22;8258;51.020;4.248;2022-12-29T01:33:16;10.90;99.90
16301;DHT22;8258;51.020;4.248;2022-12-29T01:35:43;10.80;99.90
16301;DHT22;8258;51.020;4.248;2022-12-29T01:38:10;10.70;99.90
16301;DHT22;8258;51.020;4.248;2022-12-29T01:40:43;10.60;99.90
16301;DHT22;8258;51.020;4.248;2022-12-29T01:43:13;10.60;99.90
16301;DHT22;8258;51.020;4.248;2022-12-29T01:45:45;10.60;99.90
16301;DHT22;8258;51.020;4.248;2022-12-29T01:48:15;10.70;99.90
16301;DHT22;8258;51.020;4.248;2022-12-29T01:50:49;10.60;99.90
16301;DHT22;8258;51.020;4.248;2022-12-29T01:53:18;10.60;99.90
16301;DHT22;8258;51.020;4.248;2022-12-29T01:55:50;10.60;99.90
16301;DHT22;8258;51.020;4.248;2022-12-29T01:58:22;10.60;99.90
16301;DHT22;8258;51.020;4.248;2022-12-29T02:00:49;10.50;99.90
16301;DHT22;8258;51.020;4.248;2022-12-29T02:03:17;10.50;99.90
16301;DHT22;8258;51.020;4.248;2022-12-29T02:05:49;10.50;99.90
16301;DHT22;8258;51.020;4.248;2022-12-29T02:08:18;10.50;99.90
16301;DHT22;8258;51.020;4.248;2022-12-29T02:10:47;10.50;99.90
16301;DHT22;8258;51.020;4.248;2022-12-29T02:13:15;10.50;99.90
16301;DHT22;8258;51.020;4.248;2022-12-29T02:15:50;10.50;99.90
16301;DHT22;8258;51.020;4.248;2022-12-29T02:18:27;10.40;99.90
16301;DHT22;8258;51.020;4.248;2022-12-29T02:27:06;10.50;99.90
16301;DHT22;8258;51.020;4.248;2022-12-29T02:30:03;10.50;99.90
16301;DHT22;8258;51.020;4.248;2022-12-29T02:32:38;10.50;99.90
16301;DHT22;8258;51.020;4.248;2022-12-29T02:35:14;10.50;99.90
16301;DHT22;8258;51.020;4.248;2022-12-29T02:37:56;10.50;99.90
16301;DHT22;8258;51.020;4.248;2022-12-29T02:40:33;10.50;99.90
16301;DHT22;8258;51.020;4.248;2022-12-29T02:43:11;10.50;99.90
16301;DHT22;8258;51.020;4.248;2022-12-29T02:45:47;10.50;99.90
16301;DHT22;8258;51.020;4.248;2022-12-29T02:48:22;10.40;99.90
16301;DHT22;8258;51.020;4.248;2022-12-29T02:50:54;10.40;99.90
16301;DHT22;8258;51.020;4.248;2022-12-29T02:53:25;10.40;99.90
16301;DHT22;8258;51.020;4.248;2022-12-29T02:56:07;10.40;99.90
16301;DHT22;8258;51.020;4.248;2022-12-29T02:58:34;10.30;99.90
16301;DHT22;8258;51.020;4.248;2022-12-29T03:01:19;10.30;99.90
16301;DHT22;8258;51.020;4.248;2022-12-29T03:04:20;10.30;99.90
16301;DHT22;8258;51.020;4.248;2022-12-29T03:07:04;10.20;99.90
16301;DHT22;8258;51.020;4.248;2022-12-29T03:09:42;10.20;99.90
16301;DHT22;8258;51.020;4.248;2022-12-29T03:12:14;10.20;99.90
16301;DHT22;8258;51.020;4.248;2022-12-29T03:14:55;10.20;99.90
16301;DHT22;8258;51.020;4.248;2022-12-29T03:17:48;10.10;99.90
16301;DHT22;8258;51.020;4.248;2022-12-29T03:20:23;10.10;99.90
16301;DHT22;8258;51.020;4.248;2022-12-29T03:22:54;10.10;99.90
16301;DHT22;8258;51.020;4.248;2022-12-29T03:25:29;10.10;99.90
16301;DHT22;8258;51.020;4.248;2022-12-29T03:28:01;10.10;99.90
16301;DHT22;8258;51.020;4.248;2022-12-29T03:30:31;10.10;99.90
16301;DHT22;8258;51.020;4.248;2022-12-29T03:33:02;10.10;99.90
16301;DHT22;8258;51.020;4.248;2022-12-29T03:35:36;10.10;99.90
16301;DHT22;8258;51.020;4.248;2022-12-29T03:38:09;10.00;99.90
16301;DHT22;8258;51.020;4.248;2022-12-29T03:40:39;10.10;99.90
16301;DHT22;8258;51.020;4.248;2022-12-29T03:43:08;10.00;99.90
16301;DHT22;8258;51.020;4.248;2022-12-29T03:45:35;10.00;99.90
16301;DHT22;8258;51.020;4.248;2022-12-29T03:48:02;10.00;99.90
16301;DHT22;8258;51.020;4.248;2022-12-29T03:50:31;10.00;99.90
16301;DHT22;8258;51.020;4.248;2022-12-29T03:52:57;9.90;99.90
16301;DHT22;8258;51.020;4.248;2022-12-29T03:55:24;9.90;99.90
16301;DHT22;8258;51.020;4.248;2022-12-29T03:57:51;9.90;99.90
16301;DHT22;8258;51.020;4.248;2022-12-29T04:00:18;9.80;99.90
16301;DHT22;8258;51.020;4.248;2022-12-29T04:02:46;9.90;99.90
16301;DHT22;8258;51.020;4.248;2022-12-29T04:05:13;9.80;99.90
16301;DHT22;8258;51.020;4.248;2022-12-29T04:07:41;9.70;99.90
16301;DHT22;8258;51.020;4.248;2022-12-29T04:10:08;9.70;99.90
16301;DHT22;8258;51.020;4.248;2022-12-29T04:12:35;9.70;99.90
16301;DHT22;8258;51.020;4.248;2022-12-29T04:15:03;9.80;99.90
16301;DHT22;8258;51.020;4.248;2022-12-29T04:17:30;9.70;99.90
16301;DHT22;8258;51.020;4.248;2022-12-29T04:19:57;9.70;99.90
16301;DHT22;8258;51.020;4.248;2022-12-29T04:22:45;9.70;99.90
16301;DHT22;8258;51.020;4.248;2022-12-29T04:25:12;9.70;99.90
16301;DHT22;8258;51.020;4.248;2022-12-29T04:27:39;9.70;99.90
16301;DHT22;8258;51.020;4.248;2022-12-29T04:30:07;9.80;99.90
16301;DHT22;8258;51.020;4.248;2022-12-29T04:32:34;9.90;99.90
16301;DHT22;8258;51.020;4.248;2022-12-29T04:35:01;10.00;99.90
16301;DHT22;8258;51.020;4.248;2022-12-29T04:37:28;10.00;99.90
16301;DHT22;8258;51.020;4.248;2022-12-29T04:39:56;10.10;99.90
16301;DHT22;8258;51.020;4.248;2022-12-29T04:42:23;10.20;99.90
16301;DHT22;8258;51.020;4.248;2022-12-29T04:44:50;10.20;99.90
16301;DHT22;8258;51.020;4.248;2022-12-29T04:47:16;10.30;99.90
16301;DHT22;8258;51.020;4.248;2022-12-29T04:49:43;10.30;99.90
16301;DHT22;8258;51.020;4.248;2022-12-29T04:52:10;10.20;99.90
16301;DHT22;8258;51.020;4.248;2022-12-29T04:54:37;10.20;99.90
16301;DHT22;8258;51.020;4.248;2022-12-29T04:57:06;10.20;99.90
16301;DHT22;8258;51.020;4.248;2022-12-29T04:59:33;10.20;99.90
16301;DHT22;8258;51.020;4.248;2022-12-29T05:02:00;10.20;99.90
16301;DHT22;8258;51.020;4.248;2022-12-29T05:04:27;10.10;99.90
16301;DHT22;8258;51.020;4.248;2022-12-29T05:06:54;10.20;99.90
16301;DHT22;8258;51.020;4.248;2022-12-29T05:09:21;10.20;99.90
16301;DHT22;8258;51.020;4.248;2022-12-29T05:11:49;10.20;99.90
16301;DHT22;8258;51.020;4.248;2022-12-29T05:14:17;10.20;99.90
16301;DHT22;8258;51.020;4.248;2022-12-29T05:16:44;10.20;99.90
16301;DHT22;8258;51.020;4.248;2022-12-29T05:19:11;10.20;99.90
16301;DHT22;8258;51.020;4.248;2022-12-29T05:21:38;10.20;99.90
16301;DHT22;8258;51.020;4.248;2022-12-29T05:24:05;10.20;99.90
16301;DHT22;8258;51.020;4.248;2022-12-29T05:26:32;10.20;99.90
16301;DHT22;8258;51.020;4.248;2022-12-29T05:28:59;10.30;99.90
16301;DHT22;8258;51.020;4.248;2022-12-29T05:31:27;10.20;99.90
16301;DHT22;8258;51.020;4.248;2022-12-29T05:33:54;10.30;99.90
16301;DHT22;8258;51.020;4.248;2022-12-29T05:36:21;10.30;99.90
16301;DHT22;8258;51.020;4.248;2022-12-29T05:38:48;10.20;99.90
16301;DHT22;8258;51.020;4.248;2022-12-29T05:41:16;10.30;99.90
16301;DHT22;8258;51.020;4.248;2022-12-29T05:43:42;10.30;99.90
16301;DHT22;8258;51.020;4.248;2022-12-29T05:46:09;10.30;99.90
16301;DHT22;8258;51.020;4.248;2022-12-29T05:48:38;10.30;99.90
16301;DHT22;8258;51.020;4.248;2022-12-29T05:51:05;10.20;99.90
16301;DHT22;8258;51.020;4.248;2022-12-29T05:53:32;10.30;99.90
16301;DHT22;8258;51.020;4.248;2022-12-29T05:55:59;10.30;99.90
16301;DHT22;8258;51.020;4.248;2022-12-29T05:58:26;10.30;99.90
16301;DHT22;8258;51.020;4.248;2022-12-29T06:00:53;10.30;99.90
16301;DHT22;8258;51.020;4.248;2022-12-29T06:03:20;10.30;99.90
16301;DHT22;8258;51.020;4.248;2022-12-29T06:05:48;10.40;99.90
16301;DHT22;8258;51.020;4.248;2022-12-29T06:08:15;10.40;99.90
16301;DHT22;8258;51.020;4.248;2022-12-29T06:10:42;10.30;99.90
16301;DHT22;8258;51.020;4.248;2022-12-29T06:13:09;10.30;99.90
16301;DHT22;8258;51.020;4.248;2022-12-29T06:15:36;10.40;99.90
16301;DHT22;8258;51.020;4.248;2022-12-29T06:18:03;10.40;99.90
16301;DHT22;8258;51.020;4.248;2022-12-29T06:20:30;10.40;99.90
16301;DHT22;8258;51.020;4.248;2022-12-29T06:22:58;10.40;99.90
16301;DHT22;8258;51.020;4.248;2022-12-29T06:25:25;10.40;99.90
16301;DHT22;8258;51.020;4.248;2022-12-29T06:27:52;10.30;99.90
16301;DHT22;8258;51.020;4.248;2022-12-29T06:30:19;10.40;99.90
16301;DHT22;8258;51.020;4.248;2022-12-29T06:32:46;10.50;99.90
16301;DHT22;8258;51.020;4.248;2022-12-29T06:35:13;10.50;99.90
16301;DHT22;8258;51.020;4.248;2022-12-29T06:37:39;10.50;99.90
16301;DHT22;8258;51.020;4.248;2022-12-29T06:40:09;10.50;99.90
16301;DHT22;8258;51.020;4.248;2022-12-29T06:42:37;10.40;99.90
16301;DHT22;8258;51.020;4.248;2022-12-29T06:45:05;10.50;99.90
16301;DHT22;8258;51.020;4.248;2022-12-29T06:47:33;10.50;99.90
16301;DHT22;8258;51.020;4.248;2022-12-29T06:50:00;10.50;99.90
16301;DHT22;8258;51.020;4.248;2022-12-29T06:52:27;10.50;99.90
16301;DHT22;8258;51.020;4.248;2022-12-29T06:54:55;10.50;99.90
16301;DHT22;8258;51.020;4.248;2022-12-29T06:57:23;10.50;99.90
16301;DHT22;8258;51.020;4.248;2022-12-29T06:59:52;10.50;99.90
16301;DHT22;8258;51.020;4.248;2022-12-29T07:02:21;10.50;99.90
16301;DHT22;8258;51.020;4.248;2022-12-29T07:04:47;10.50;99.90
16301;DHT22;8258;51.020;4.248;2022-12-29T07:07:14;10.50;99.90
16301;DHT22;8258;51.020;4.248;2022-12-29T07:09:41;10.50;99.90
16301;DHT22;8258;51.020;4.248;2022-12-29T07:12:08;10.60;99.90
16301;DHT22;8258;51.020;4.248;2022-12-29T07:14:37;10.60;99.90
16301;DHT22;8258;51.020;4.248;2022-12-29T07:17:05;10.60;99.90
16301;DHT22;8258;51.020;4.248;2022-12-29T07:19:32;10.60;99.90
16301;DHT22;8258;51.020;4.248;2022-12-29T07:21:59;10.60;99.90
16301;DHT22;8258;51.020;4.248;2022-12-29T07:24:26;10.60;99.90
16301;DHT22;8258;51.020;4.248;2022-12-29T07:26:53;10.60;99.90
16301;DHT22;8258;51.020;4.248;2022-12-29T07:29:20;10.60;99.90
16301;DHT22;8258;51.020;4.248;2022-12-29T07:31:49;10.60;99.90
16301;DHT22;8258;51.020;4.248;2022-12-29T07:34:15;10.60;99.90
16301;DHT22;8258;51.020;4.248;2022-12-29T07:36:42;10.60;99.90
16301;DHT22;8258;51.020;4.248;2022-12-29T07:39:09;10.60;99.90
16301;DHT22;8258;51.020;4.248;2022-12-29T07:41:37;10.60;99.90
16301;DHT22;8258;51.020;4.248;2022-12-29T07:44:04;10.60;99.90
16301;DHT22;8258;51.020;4.248;2022-12-29T07:46:31;10.60;99.90
16301;DHT22;8258;51.020;4.248;2022-12-29T07:48:59;10.60;99.90
16301;DHT22;8258;51.020;4.248;2022-12-29T07:51:26;10.60;99.90
16301;DHT22;8258;51.020;4.248;2022-12-29T07:53:53;10.60;99.90
16301;DHT22;8258;51.020;4.248;2022-12-29T07:56:20;10.70;99.90
16301;DHT22;8258;51.020;4.248;2022-12-29T07:58:46;10.70;99.90
16301;DHT22;8258;51.020;4.248;2022-12-29T08:01:13;10.60;99.90
16301;DHT22;8258;51.020;4.248;2022-12-29T08:03:40;10.70;99.90
16301;DHT22;8258;51.020;4.248;2022-12-29T08:06:10;10.70;99.90
16301;DHT22;8258;51.020;4.248;2022-12-29T08:08:37;10.70;99.90
16301;DHT22;8258;51.020;4.248;2022-12-29T08:11:04;10.70;99.90
16301;DHT22;8258;51.020;4.248;2022-12-29T08:13:31;10.80;99.90
16301;DHT22;8258;51.020;4.248;2022-12-29T08:15:58;10.80;99.90
16301;DHT22;8258;51.020;4.248;2022-12-29T08:18:25;10.70;99.90
16301;DHT22;8258;51.020;4.248;2022-12-29T08:20:52;10.70;99.90
16301;DHT22;8258;51.020;4.248;2022-12-29T08:23:20;10.70;99.90
16301;DHT22;8258;51.020;4.248;2022-12-29T08:25:57;10.60;99.90
16301;DHT22;8258;51.020;4.248;2022-12-29T08:28:23;10.50;99.90
16301;DHT22;8258;51.020;4.248;2022-12-29T08:30:50;10.50;99.90
16301;DHT22;8258;51.020;4.248;2022-12-29T08:33:17;10.60;99.90
16301;DHT22;8258;51.020;4.248;2022-12-29T08:35:44;10.70;99.90
16301;DHT22;8258;51.020;4.248;2022-12-29T08:38:11;10.70;99.90
16301;DHT22;8258;51.020;4.248;2022-12-29T08:40:46;10.70;99.90
16301;DHT22;8258;51.020;4.248;2022-12-29T08:43:13;10.70;99.90
16301;DHT22;8258;51.020;4.248;2022-12-29T08:45:40;10.60;99.90
16301;DHT22;8258;51.020;4.248;2022-12-29T08:48:07;10.40;99.90
16301;DHT22;8258;51.020;4.248;2022-12-29T08:50:34;10.20;99.90
16301;DHT22;8258;51.020;4.248;2022-12-29T08:53:01;10.20;99.90
16301;DHT22;8258;51.020;4.248;2022-12-29T08:55:28;10.00;99.90
16301;DHT22;8258;51.020;4.248;2022-12-29T08:57:56;9.90;99.90
16301;DHT22;8258;51.020;4.248;2022-12-29T09:00:23;9.70;99.90
16301;DHT22;8258;51.020;4.248;2022-12-29T09:02:50;9.70;99.90
16301;DHT22;8258;51.020;4.248;2022-12-29T09:05:23;9.80;99.90
16301;DHT22;8258;51.020;4.248;2022-12-29T09:07:50;9.70;99.90
16301;DHT22;8258;51.020;4.248;2022-12-29T09:10:17;9.70;99.90
16301;DHT22;8258;51.020;4.248;2022-12-29T09:12:44;9.80;99.90
16301;DHT22;8258;51.020;4.248;2022-12-29T09:15:13;9.80;99.90
16301;DHT22;8258;51.020;4.248;2022-12-29T09:17:41;9.80;99.90
16301;DHT22;8258;51.020;4.248;2022-12-29T09:20:09;9.80;99.90
16301;DHT22;8258;51.020;4.248;2022-12-29T09:22:37;9.70;99.90
16301;DHT22;8258;51.020;4.248;2022-12-29T09:25:04;9.60;99.90
16301;DHT22;8258;51.020;4.248;2022-12-29T09:27:31;9.60;99.90
16301;DHT22;8258;51.020;4.248;2022-12-29T09:29:58;9.50;99.90
16301;DHT22;8258;51.020;4.248;2022-12-29T09:32:26;9.50;99.90
16301;DHT22;8258;51.020;4.248;2022-12-29T09:34:53;9.50;99.90
16301;DHT22;8258;51.020;4.248;2022-12-29T09:37:20;9.50;99.90
16301;DHT22;8258;51.020;4.248;2022-12-29T09:39:48;9.50;99.90
16301;DHT22;8258;51.020;4.248;2022-12-29T09:42:21;9.60;99.90
16301;DHT22;8258;51.020;4.248;2022-12-29T09:45:01;9.70;99.90
16301;DHT22;8258;51.020;4.248;2022-12-29T09:47:32;9.70;99.90
16301;DHT22;8258;51.020;4.248;2022-12-29T09:50:03;9.70;99.90
16301;DHT22;8258;51.020;4.248;2022-12-29T09:52:35;9.70;99.90
16301;DHT22;8258;51.020;4.248;2022-12-29T09:55:04;9.50;99.90
16301;DHT22;8258;51.020;4.248;2022-12-29T09:57:39;9.40;99.90
16301;DHT22;8258;51.020;4.248;2022-12-29T10:00:13;9.40;99.90
16301;DHT22;8258;51.020;4.248;2022-12-29T10:02:44;9.50;99.90
16301;DHT22;8258;51.020;4.248;2022-12-29T10:05:20;9.60;99.90
16301;DHT22;8258;51.020;4.248;2022-12-29T10:07:54;9.60;99.90
16301;DHT22;8258;51.020;4.248;2022-12-29T10:10:31;9.60;99.90
16301;DHT22;8258;51.020;4.248;2022-12-29T10:13:14;9.70;99.90
16301;DHT22;8258;51.020;4.248;2022-12-29T10:15:53;9.70;99.90
16301;DHT22;8258;51.020;4.248;2022-12-29T10:18:57;9.60;99.90
16301;DHT22;8258;51.020;4.248;2022-12-29T10:21:33;9.70;99.90
16301;DHT22;8258;51.020;4.248;2022-12-29T10:24:06;10.00;99.90
16301;DHT22;8258;51.020;4.248;2022-12-29T10:26:39;10.00;99.90
16301;DHT22;8258;51.020;4.248;2022-12-29T10:29:13;10.00;99.90
16301;DHT22;8258;51.020;4.248;2022-12-29T10:31:44;10.00;99.90
16301;DHT22;8258;51.020;4.248;2022-12-29T10:34:19;10.10;99.90
16301;DHT22;8258;51.020;4.248;2022-12-29T10:36:48;10.30;99.90
16301;DHT22;8258;51.020;4.248;2022-12-29T10:39:20;10.40;99.90
16301;DHT22;8258;51.020;4.248;2022-12-29T10:41:50;10.80;99.90
16301;DHT22;8258;51.020;4.248;2022-12-29T10:44:19;11.10;99.90
16301;DHT22;8258;51.020;4.248;2022-12-29T10:46:54;11.00;99.90
16301;DHT22;8258;51.020;4.248;2022-12-29T10:49:25;10.90;99.90
16301;DHT22;8258;51.020;4.248;2022-12-29T10:51:55;11.00;99.90
16301;DHT22;8258;51.020;4.248;2022-12-29T10:54:27;11.00;99.90
16301;DHT22;8258;51.020;4.248;2022-12-29T10:56:56;10.90;99.90
16301;DHT22;8258;51.020;4.248;2022-12-29T10:59:26;10.90;99.90
16301;DHT22;8258;51.020;4.248;2022-12-29T11:02:00;10.90;99.90
16301;DHT22;8258;51.020;4.248;2022-12-29T11:04:43;10.90;99.90
16301;DHT22;8258;51.020;4.248;2022-12-29T11:07:15;10.90;99.90
16301;DHT22;8258;51.020;4.248;2022-12-29T11:09:44;11.00;99.90
16301;DHT22;8258;51.020;4.248;2022-12-29T11:12:23;11.00;99.90
16301;DHT22;8258;51.020;4.248;2022-12-29T11:15:12;10.90;99.90
16301;DHT22;8258;51.020;4.248;2022-12-29T11:17:44;10.90;99.90
16301;DHT22;8258;51.020;4.248;2022-12-29T11:20:37;10.90;99.90
16301;DHT22;8258;51.020;4.248;2022-12-29T11:23:20;11.00;99.90
16301;DHT22;8258;51.020;4.248;2022-12-29T11:26:06;11.00;99.90
16301;DHT22;8258;51.020;4.248;2022-12-29T11:28:34;10.90;99.90
16301;DHT22;8258;51.020;4.248;2022-12-29T11:31:02;10.90;99.90
16301;DHT22;8258;51.020;4.248;2022-12-29T11:33:30;10.80;99.90
16301;DHT22;8258;51.020;4.248;2022-12-29T11:36:01;10.80;99.90
16301;DHT22;8258;51.020;4.248;2022-12-29T11:38:35;10.60;99.90
16301;DHT22;8258;51.020;4.248;2022-12-29T11:41:04;10.60;99.90
16301;DHT22;8258;51.020;4.248;2022-12-29T11:43:34;10.50;99.90
16301;DHT22;8258;51.020;4.248;2022-12-29T11:46:04;10.60;99.90
16301;DHT22;8258;51.020;4.248;2022-12-29T11:48:33;10.60;99.90
16301;DHT22;8258;51.020;4.248;2022-12-29T11:51:06;10.70;99.90
16301;DHT22;8258;51.020;4.248;2022-12-29T11:53:39;10.70;99.90
16301;DHT22;8258;51.020;4.248;2022-12-29T11:56:10;10.70;99.90
16301;DHT22;8258;51.020;4.248;2022-12-29T11:58:39;10.80;99.90
16301;DHT22;8258;51.020;4.248;2022-12-29T12:01:10;10.80;99.90
16301;DHT22;8258;51.020;4.248;2022-12-29T12:03:44;10.70;99.90
16301;DHT22;8258;51.020;4.248;2022-12-29T12:06:16;10.80;99.90
16301;DHT22;8258;51.020;4.248;2022-12-29T12:08:50;10.80;99.90
16301;DHT22;8258;51.020;4.248;2022-12-29T12:11:22;10.70;99.90
16301;DHT22;8258;51.020;4.248;2022-12-29T12:13:57;10.70;99.90
16301;DHT22;8258;51.020;4.248;2022-12-29T12:16:28;10.70;99.90
16301;DHT22;8258;51.020;4.248;2022-12-29T12:19:03;10.80;99.90
16301;DHT22;8258;51.020;4.248;2022-12-29T12:21:36;10.90;99.90
16301;DHT22;8258;51.020;4.248;2022-12-29T12:24:33;10.90;99.90
16301;DHT22;8258;51.020;4.248;2022-12-29T12:27:02;10.80;99.90
16301;DHT22;8258;51.020;4.248;2022-12-29T12:29:38;10.60;99.90
16301;DHT22;8258;51.020;4.248;2022-12-29T12:32:12;10.50;99.90
16301;DHT22;8258;51.020;4.248;2022-12-29T12:34:43;10.50;99.90
16301;DHT22;8258;51.020;4.248;2022-12-29T12:37:33;10.50;99.90
16301;DHT22;8258;51.020;4.248;2022-12-29T12:40:36;10.60;99.90
16301;DHT22;8258;51.020;4.248;2022-12-29T12:43:18;10.60;99.90
16301;DHT22;8258;51.020;4.248;2022-12-29T12:46:05;10.60;99.90
16301;DHT22;8258;51.020;4.248;2022-12-29T12:48:59;10.60;99.90
16301;DHT22;8258;51.020;4.248;2022-12-29T12:51:36;10.60;99.90
16301;DHT22;8258;51.020;4.248;2022-12-29T12:54:23;10.60;99.90
16301;DHT22;8258;51.020;4.248;2022-12-29T12:57:03;10.70;99.90
16301;DHT22;8258;51.020;4.248;2022-12-29T12:59:46;10.90;99.90
16301;DHT22;8258;51.020;4.248;2022-12-29T13:02:23;11.10;99.90
16301;DHT22;8258;51.020;4.248;2022-12-29T13:05:17;11.10;99.90
16301;DHT22;8258;51.020;4.248;2022-12-29T13:07:54;11.00;99.90
16301;DHT22;8258;51.020;4.248;2022-12-29T13:10:31;10.90;99.90
16301;DHT22;8258;51.020;4.248;2022-12-29T13:13:20;11.00;99.90
16301;DHT22;8258;51.020;4.248;2022-12-29T13:15:56;11.00;99.90
16301;DHT22;8258;51.020;4.248;2022-12-29T13:18:29;11.00;99.90
16301;DHT22;8258;51.020;4.248;2022-12-29T13:21:03;10.90;99.90
16301;DHT22;8258;51.020;4.248;2022-12-29T13:23:39;10.90;99.90
16301;DHT22;8258;51.020;4.248;2022-12-29T13:26:18;10.80;99.90
16301;DHT22;8258;51.020;4.248;2022-12-29T13:28:53;10.50;99.90
16301;DHT22;8258;51.020;4.248;2022-12-29T13:31:29;10.20;99.90
16301;DHT22;8258;51.020;4.248;2022-12-29T13:34:05;10.10;99.90
16301;DHT22;8258;51.020;4.248;2022-12-29T13:36:42;10.00;99.90
16301;DHT22;8258;51.020;4.248;2022-12-29T13:39:15;10.10;99.90
16301;DHT22;8258;51.020;4.248;2022-12-29T13:41:48;10.10;99.90
16301;DHT22;8258;51.020;4.248;2022-12-29T13:44:25;10.20;99.90
16301;DHT22;8258;51.020;4.248;2022-12-29T13:46:55;10.20;99.90
16301;DHT22;8258;51.020;4.248;2022-12-29T13:49:24;10.20;99.90
16301;DHT22;8258;51.020;4.248;2022-12-29T13:51:53;10.10;99.90
16301;DHT22;8258;51.020;4.248;2022-12-29T13:54:37;10.10;99.90
16301;DHT22;8258;51.020;4.248;2022-12-29T13:57:11;9.90;99.90
16301;DHT22;8258;51.020;4.248;2022-12-29T13:59:46;9.70;99.90
16301;DHT22;8258;51.020;4.248;2022-12-29T14:02:31;9.30;99.90
16301;DHT22;8258;51.020;4.248;2022-12-29T14:05:14;9.00;99.90
16301;DHT22;8258;51.020;4.248;2022-12-29T14:07:57;8.90;99.90
16301;DHT22;8258;51.020;4.248;2022-12-29T14:10:28;8.70;99.90
16301;DHT22;8258;51.020;4.248;2022-12-29T14:13:04;8.60;99.90
16301;DHT22;8258;51.020;4.248;2022-12-29T14:15:32;8.50;99.90
16301;DHT22;8258;51.020;4.248;2022-12-29T14:18:09;8.40;99.90
16301;DHT22;8258;51.020;4.248;2022-12-29T14:20:38;8.30;99.90
16301;DHT22;8258;51.020;4.248;2022-12-29T14:23:17;8.40;99.90
16301;DHT22;8258;51.020;4.248;2022-12-29T14:25:57;8.40;99.90
16301;DHT22;8258;51.020;4.248;2022-12-29T14:28:26;8.40;99.90
16301;DHT22;8258;51.020;4.248;2022-12-29T14:30:55;8.30;99.90
16301;DHT22;8258;51.020;4.248;2022-12-29T14:33:23;8.20;99.90
16301;DHT22;8258;51.020;4.248;2022-12-29T14:35:53;8.00;99.90
16301;DHT22;8258;51.020;4.248;2022-12-29T14:38:25;8.00;99.90
16301;DHT22;8258;51.020;4.248;2022-12-29T14:41:24;8.00;99.90
16301;DHT22;8258;51.020;4.248;2022-12-29T14:44:02;8.00;99.90
16301;DHT22;8258;51.020;4.248;2022-12-29T14:46:45;8.10;99.90
16301;DHT22;8258;51.020;4.248;2022-12-29T14:49:17;8.20;99.90
16301;DHT22;8258;51.020;4.248;2022-12-29T14:51:45;8.20;99.90
16301;DHT22;8258;51.020;4.248;2022-12-29T14:57:30;8.30;99.90
16301;DHT22;8258;51.020;4.248;2022-12-29T15:00:06;8.30;99.90
16301;DHT22;8258;51.020;4.248;2022-12-29T15:02:38;8.40;99.90
16301;DHT22;8258;51.020;4.248;2022-12-29T15:05:24;8.40;99.90
16301;DHT22;8258;51.020;4.248;2022-12-29T15:07:52;8.40;99.90
16301;DHT22;8258;51.020;4.248;2022-12-29T15:10:20;8.40;99.90
16301;DHT22;8258;51.020;4.248;2022-12-29T15:12:52;8.40;99.90
16301;DHT22;8258;51.020;4.248;2022-12-29T15:15:23;8.40;99.90
16301;DHT22;8258;51.020;4.248;2022-12-29T15:17:50;8.40;99.90
16301;DHT22;8258;51.020;4.248;2022-12-29T15:20:25;8.40;99.90
16301;DHT22;8258;51.020;4.248;2022-12-29T15:22:55;8.40;99.90
16301;DHT22;8258;51.020;4.248;2022-12-29T15:25:22;8.40;99.90
16301;DHT22;8258;51.020;4.248;2022-12-29T15:27:51;8.40;99.90
16301;DHT22;8258;51.020;4.248;2022-12-29T15:30:23;8.50;99.90
16301;DHT22;8258;51.020;4.248;2022-12-29T15:32:50;8.50;99.90
16301;DHT22;8258;51.020;4.248;2022-12-29T15:35:31;8.60;99.90
16301;DHT22;8258;51.020;4.248;2022-12-29T15:37:59;8.60;99.90
16301;DHT22;8258;51.020;4.248;2022-12-29T15:40:28;8.60;99.90
16301;DHT22;8258;51.020;4.248;2022-12-29T15:45:54;8.60;99.90
16301;DHT22;8258;51.020;4.248;2022-12-29T15:48:23;8.60;99.90
16301;DHT22;8258;51.020;4.248;2022-12-29T15:50:51;8.50;99.90
16301;DHT22;8258;51.020;4.248;2022-12-29T15:53:20;8.40;99.90
16301;DHT22;8258;51.020;4.248;2022-12-29T15:55:50;8.40;99.90
16301;DHT22;8258;51.020;4.248;2022-12-29T15:58:20;8.40;99.90
16301;DHT22;8258;51.020;4.248;2022-12-29T16:00:48;8.40;99.90
16301;DHT22;8258;51.020;4.248;2022-12-29T16:03:17;8.40;99.90
16301;DHT22;8258;51.020;4.248;2022-12-29T16:05:51;8.30;99.90
16301;DHT22;8258;51.020;4.248;2022-12-29T16:08:29;8.30;99.90
16301;DHT22;8258;51.020;4.248;2022-12-29T16:10:58;8.20;99.90
16301;DHT22;8258;51.020;4.248;2022-12-29T16:13:29;8.20;99.90
16301;DHT22;8258;51.020;4.248;2022-12-29T16:16:00;8.10;99.90
16301;DHT22;8258;51.020;4.248;2022-12-29T16:18:32;8.10;99.90
16301;DHT22;8258;51.020;4.248;2022-12-29T16:21:01;8.10;99.90
16301;DHT22;8258;51.020;4.248;2022-12-29T16:23:29;8.20;99.90
16301;DHT22;8258;51.020;4.248;2022-12-29T16:25:58;8.20;99.90
16301;DHT22;8258;51.020;4.248;2022-12-29T16:28:29;8.20;99.90
16301;DHT22;8258;51.020;4.248;2022-12-29T16:30:59;8.10;99.90